sensor_id;sensor_type;location;lat;lon;timestamp;temperature;humidity
13440;DHT22;6792;57.698;11.946;2022-12-26T00:01:37;12.10;58.20
13440;DHT22;6792;57.698;11.946;2022-12-26T00:04:06;12.20;57.80
13440;DHT22;6792;57.698;11.946;2022-12-26T00:06:36;12.20;58.30
13440;DHT22;6792;57.698;11.946;2022-12-26T00:09:06;12.20;58.20
13440;DHT22;6792;57.698;11.946;2022-12-26T00:11:35;12.20;57.70
13440;DHT22;6792;57.698;11.946;2022-12-26T00:14:07;12.20;58.30
13440;DHT22;6792;57.698;11.946;2022-12-26T00:16:37;12.20;58.30
13440;DHT22;6792;57.698;11.946;2022-12-26T00:19:08;12.20;57.80
13440;DHT22;6792;57.698;11.946;2022-12-26T00:21:37;12.20;58.40
13440;DHT22;6792;57.698;11.946;2022-12-26T00:24:08;12.20;58.30
13440;DHT22;6792;57.698;11.946;2022-12-26T00:26:38;12.20;58.20
13440;DHT22;6792;57.698;11.946;2022-12-26T00:29:07;12.20;58.30
13440;DHT22;6792;57.698;11.946;2022-12-26T00:31:36;12.30;57.80
13440;DHT22;6792;57.698;11.946;2022-12-26T00:34:05;12.30;58.30
13440;DHT22;6792;57.698;11.946;2022-12-26T00:36:34;12.30;58.20
13440;DHT22;6792;57.698;11.946;2022-12-26T00:39:04;12.30;58.20
13440;DHT22;6792;57.698;11.946;2022-12-26T00:41:33;12.40;58.30
13440;DHT22;6792;57.698;11.946;2022-12-26T00:44:04;12.40;58.20
13440;DHT22;6792;57.698;11.946;2022-12-26T00:46:33;12.40;58.20
13440;DHT22;6792;57.698;11.946;2022-12-26T00:49:05;12.40;58.20
13440;DHT22;6792;57.698;11.946;2022-12-26T00:51:34;12.40;58.20
13440;DHT22;6792;57.698;11.946;2022-12-26T00:54:04;12.40;58.20
13440;DHT22;6792;57.698;11.946;2022-12-26T00:56:34;12.40;58.20
13440;DHT22;6792;57.698;11.946;2022-12-26T00:59:03;12.40;58.20
13440;DHT22;6792;57.698;11.946;2022-12-26T01:01:33;12.50;58.30
13440;DHT22;6792;57.698;11.946;2022-12-26T01:04:03;12.50;57.70
13440;DHT22;6792;57.698;11.946;2022-12-26T01:06:35;12.50;58.20
13440;DHT22;6792;57.698;11.946;2022-12-26T01:09:04;12.50;58.20
13440;DHT22;6792;57.698;11.946;2022-12-26T01:11:33;12.50;58.20
13440;DHT22;6792;57.698;11.946;2022-12-26T01:14:11;12.50;58.20
13440;DHT22;6792;57.698;11.946;2022-12-26T01:16:42;12.50;58.30
13440;DHT22;6792;57.698;11.946;2022-12-26T01:19:12;12.50;58.30
13440;DHT22;6792;57.698;11.946;2022-12-26T01:21:41;12.50;58.30
13440;DHT22;6792;57.698;11.946;2022-12-26T01:24:10;12.60;58.30
13440;DHT22;6792;57.698;11.946;2022-12-26T01:26:40;12.60;58.20
13440;DHT22;6792;57.698;11.946;2022-12-26T01:29:09;12.60;58.20
13440;DHT22;6792;57.698;11.946;2022-12-26T01:31:38;12.60;58.10
13440;DHT22;6792;57.698;11.946;2022-12-26T01:34:07;12.60;57.60
13440;DHT22;6792;57.698;11.946;2022-12-26T01:36:37;12.70;57.60
13440;DHT22;6792;57.698;11.946;2022-12-26T01:39:06;12.70;58.20
13440;DHT22;6792;57.698;11.946;2022-12-26T01:41:35;12.70;58.10
13440;DHT22;6792;57.698;11.946;2022-12-26T01:44:50;12.70;58.10
13440;DHT22;6792;57.698;11.946;2022-12-26T01:46:39;12.70;58.60
13440;DHT22;6792;57.698;11.946;2022-12-26T01:49:15;12.70;58.10
13440;DHT22;6792;57.698;11.946;2022-12-26T01:51:44;12.70;58.10
13440;DHT22;6792;57.698;11.946;2022-12-26T01:54:14;12.70;58.10
13440;DHT22;6792;57.698;11.946;2022-12-26T01:56:45;12.70;58.10
13440;DHT22;6792;57.698;11.946;2022-12-26T01:59:17;12.80;58.10
13440;DHT22;6792;57.698;11.946;2022-12-26T02:01:48;12.80;58.10
13440;DHT22;6792;57.698;11.946;2022-12-26T02:04:23;12.70;58.10
13440;DHT22;6792;57.698;11.946;2022-12-26T02:07:11;12.80;58.20
13440;DHT22;6792;57.698;11.946;2022-12-26T02:09:40;12.70;58.30
13440;DHT22;6792;57.698;11.946;2022-12-26T02:12:13;12.70;58.20
13440;DHT22;6792;57.698;11.946;2022-12-26T02:14:43;12.70;58.10
13440;DHT22;6792;57.698;11.946;2022-12-26T02:17:12;12.70;58.10
13440;DHT22;6792;57.698;11.946;2022-12-26T02:19:45;12.70;58.00
13440;DHT22;6792;57.698;11.946;2022-12-26T02:22:27;12.80;57.50
13440;DHT22;6792;57.698;11.946;2022-12-26T02:28:09;12.80;57.50
13440;DHT22;6792;57.698;11.946;2022-12-26T02:30:43;12.80;57.40
13440;DHT22;6792;57.698;11.946;2022-12-26T02:33:23;12.80;58.00
13440;DHT22;6792;57.698;11.946;2022-12-26T02:36:11;12.80;58.00
13440;DHT22;6792;57.698;11.946;2022-12-26T02:38:44;12.80;57.40
13440;DHT22;6792;57.698;11.946;2022-12-26T02:41:22;12.80;57.90
13440;DHT22;6792;57.698;11.946;2022-12-26T02:43:55;12.80;58.00
13440;DHT22;6792;57.698;11.946;2022-12-26T02:46:28;12.80;57.40
13440;DHT22;6792;57.698;11.946;2022-12-26T02:49:18;12.80;58.00
13440;DHT22;6792;57.698;11.946;2022-12-26T02:51:56;12.70;58.00
13440;DHT22;6792;57.698;11.946;2022-12-26T02:57:42;12.70;57.40
13440;DHT22;6792;57.698;11.946;2022-12-26T03:00:30;12.70;57.90
13440;DHT22;6792;57.698;11.946;2022-12-26T03:03:21;12.70;58.00
13440;DHT22;6792;57.698;11.946;2022-12-26T03:06:12;12.70;57.50
13440;DHT22;6792;57.698;11.946;2022-12-26T03:09:01;12.60;57.60
13440;DHT22;6792;57.698;11.946;2022-12-26T03:11:49;12.60;57.70
13440;DHT22;6792;57.698;11.946;2022-12-26T03:14:39;12.60;57.80
13440;DHT22;6792;57.698;11.946;2022-12-26T03:17:11;12.50;58.30
13440;DHT22;6792;57.698;11.946;2022-12-26T03:19:50;12.60;57.70
13440;DHT22;6792;57.698;11.946;2022-12-26T03:22:33;12.60;58.20
13440;DHT22;6792;57.698;11.946;2022-12-26T03:25:05;12.60;57.60
13440;DHT22;6792;57.698;11.946;2022-12-26T03:27:52;12.60;57.50
13440;DHT22;6792;57.698;11.946;2022-12-26T03:30:22;12.60;58.10
13440;DHT22;6792;57.698;11.946;2022-12-26T03:33:09;12.60;57.50
13440;DHT22;6792;57.698;11.946;2022-12-26T03:35:58;12.60;58.10
13440;DHT22;6792;57.698;11.946;2022-12-26T03:38:31;12.60;58.00
13440;DHT22;6792;57.698;11.946;2022-12-26T03:41:05;12.60;57.30
13440;DHT22;6792;57.698;11.946;2022-12-26T03:43:59;12.60;57.90
13440;DHT22;6792;57.698;11.946;2022-12-26T03:46:54;12.60;58.10
13440;DHT22;6792;57.698;11.946;2022-12-26T03:49:44;12.50;58.20
13440;DHT22;6792;57.698;11.946;2022-12-26T03:52:36;12.50;58.30
13440;DHT22;6792;57.698;11.946;2022-12-26T03:55:25;12.40;58.40
13440;DHT22;6792;57.698;11.946;2022-12-26T03:58:16;12.40;57.80
13440;DHT22;6792;57.698;11.946;2022-12-26T04:01:06;12.40;58.40
13440;DHT22;6792;57.698;11.946;2022-12-26T04:03:54;12.40;57.90
13440;DHT22;6792;57.698;11.946;2022-12-26T04:06:47;12.40;58.30
13440;DHT22;6792;57.698;11.946;2022-12-26T04:09:35;12.50;58.10
13440;DHT22;6792;57.698;11.946;2022-12-26T04:12:23;12.60;58.00
13440;DHT22;6792;57.698;11.946;2022-12-26T04:15:16;12.50;57.50
13440;DHT22;6792;57.698;11.946;2022-12-26T04:21:10;12.50;57.70
13440;DHT22;6792;57.698;11.946;2022-12-26T04:23:44;12.50;57.50
13440;DHT22;6792;57.698;11.946;2022-12-26T04:26:35;12.60;58.00
13440;DHT22;6792;57.698;11.946;2022-12-26T04:29:22;12.50;57.60
13440;DHT22;6792;57.698;11.946;2022-12-26T04:32:12;12.50;58.20
13440;DHT22;6792;57.698;11.946;2022-12-26T04:35:03;12.50;58.20
13440;DHT22;6792;57.698;11.946;2022-12-26T04:37:50;12.50;58.10
13440;DHT22;6792;57.698;11.946;2022-12-26T04:40:40;12.50;58.20
13440;DHT22;6792;57.698;11.946;2022-12-26T04:43:28;12.50;58.20
13440;DHT22;6792;57.698;11.946;2022-12-26T04:46:16;12.40;57.80
13440;DHT22;6792;57.698;11.946;2022-12-26T04:48:48;12.40;57.80
13440;DHT22;6792;57.698;11.946;2022-12-26T04:51:36;12.50;58.20
13440;DHT22;6792;57.698;11.946;2022-12-26T04:54:06;12.50;58.20
13440;DHT22;6792;57.698;11.946;2022-12-26T04:56:35;12.60;58.20
13440;DHT22;6792;57.698;11.946;2022-12-26T04:59:04;12.60;58.00
13440;DHT22;6792;57.698;11.946;2022-12-26T05:01:33;12.70;57.90
13440;DHT22;6792;57.698;11.946;2022-12-26T05:04:20;12.70;57.80
13440;DHT22;6792;57.698;11.946;2022-12-26T05:07:17;12.70;57.80
13440;DHT22;6792;57.698;11.946;2022-12-26T05:10:07;12.70;57.80
13440;DHT22;6792;57.698;11.946;2022-12-26T05:12:37;12.70;57.80
13440;DHT22;6792;57.698;11.946;2022-12-26T05:15:08;12.70;57.20
13440;DHT22;6792;57.698;11.946;2022-12-26T05:17:37;12.80;57.70
13440;DHT22;6792;57.698;11.946;2022-12-26T05:20:24;12.80;57.20
13440;DHT22;6792;57.698;11.946;2022-12-26T05:23:18;12.70;57.30
13440;DHT22;6792;57.698;11.946;2022-12-26T05:26:08;12.70;57.20
13440;DHT22;6792;57.698;11.946;2022-12-26T05:28:58;12.70;57.40
13440;DHT22;6792;57.698;11.946;2022-12-26T05:31:27;12.70;58.10
13440;DHT22;6792;57.698;11.946;2022-12-26T05:33:56;12.70;57.90
13440;DHT22;6792;57.698;11.946;2022-12-26T05:36:38;12.70;57.80
13440;DHT22;6792;57.698;11.946;2022-12-26T05:39:08;12.70;57.80
13440;DHT22;6792;57.698;11.946;2022-12-26T05:41:38;12.70;57.80
13440;DHT22;6792;57.698;11.946;2022-12-26T05:44:08;12.70;57.80
13440;DHT22;6792;57.698;11.946;2022-12-26T05:46:38;12.80;57.70
13440;DHT22;6792;57.698;11.946;2022-12-26T05:49:09;12.80;57.10
13440;DHT22;6792;57.698;11.946;2022-12-26T05:51:38;12.80;57.60
13440;DHT22;6792;57.698;11.946;2022-12-26T05:54:07;12.80;57.60
13440;DHT22;6792;57.698;11.946;2022-12-26T05:56:36;12.80;57.60
13440;DHT22;6792;57.698;11.946;2022-12-26T05:59:05;12.80;57.00
13440;DHT22;6792;57.698;11.946;2022-12-26T06:01:34;12.80;57.60
13440;DHT22;6792;57.698;11.946;2022-12-26T06:04:04;12.80;57.60
13440;DHT22;6792;57.698;11.946;2022-12-26T06:06:33;12.80;57.00
13440;DHT22;6792;57.698;11.946;2022-12-26T06:09:02;12.80;57.50
13440;DHT22;6792;57.698;11.946;2022-12-26T06:11:31;12.80;57.50
13440;DHT22;6792;57.698;11.946;2022-12-26T06:14:04;12.90;57.50
13440;DHT22;6792;57.698;11.946;2022-12-26T06:16:32;12.90;57.50
13440;DHT22;6792;57.698;11.946;2022-12-26T06:19:01;12.90;57.50
13440;DHT22;6792;57.698;11.946;2022-12-26T06:21:30;12.80;57.50
13440;DHT22;6792;57.698;11.946;2022-12-26T06:24:01;12.80;57.00
13440;DHT22;6792;57.698;11.946;2022-12-26T06:26:31;12.80;57.50
13440;DHT22;6792;57.698;11.946;2022-12-26T06:29:04;12.80;57.50
13440;DHT22;6792;57.698;11.946;2022-12-26T06:31:34;12.80;57.50
13440;DHT22;6792;57.698;11.946;2022-12-26T06:34:06;12.80;57.50
13440;DHT22;6792;57.698;11.946;2022-12-26T06:36:35;12.80;57.50
13440;DHT22;6792;57.698;11.946;2022-12-26T06:39:06;12.80;57.50
13440;DHT22;6792;57.698;11.946;2022-12-26T06:41:36;12.80;57.50
13440;DHT22;6792;57.698;11.946;2022-12-26T06:44:06;12.80;57.50
13440;DHT22;6792;57.698;11.946;2022-12-26T06:46:36;12.80;57.50
13440;DHT22;6792;57.698;11.946;2022-12-26T06:49:06;12.80;57.50
13440;DHT22;6792;57.698;11.946;2022-12-26T06:51:35;12.80;57.50
13440;DHT22;6792;57.698;11.946;2022-12-26T06:54:04;12.80;57.50
13440;DHT22;6792;57.698;11.946;2022-12-26T06:56:35;12.80;57.50
13440;DHT22;6792;57.698;11.946;2022-12-26T06:59:05;12.80;57.90
13440;DHT22;6792;57.698;11.946;2022-12-26T07:01:35;12.80;58.00
13440;DHT22;6792;57.698;11.946;2022-12-26T07:04:04;12.80;57.50
13440;DHT22;6792;57.698;11.946;2022-12-26T07:06:37;12.80;57.60
13440;DHT22;6792;57.698;11.946;2022-12-26T07:09:08;12.70;57.50
13440;DHT22;6792;57.698;11.946;2022-12-26T07:11:41;12.70;56.90
13440;DHT22;6792;57.698;11.946;2022-12-26T07:14:12;12.80;57.60
13440;DHT22;6792;57.698;11.946;2022-12-26T07:16:43;12.70;57.50
13440;DHT22;6792;57.698;11.946;2022-12-26T07:19:13;12.80;57.60
13440;DHT22;6792;57.698;11.946;2022-12-26T07:21:42;12.80;57.60
13440;DHT22;6792;57.698;11.946;2022-12-26T07:24:15;12.80;57.60
13440;DHT22;6792;57.698;11.946;2022-12-26T07:26:45;12.80;57.60
13440;DHT22;6792;57.698;11.946;2022-12-26T07:29:15;12.80;57.60
13440;DHT22;6792;57.698;11.946;2022-12-26T07:31:44;12.80;57.00
13440;DHT22;6792;57.698;11.946;2022-12-26T07:34:13;12.80;58.10
13440;DHT22;6792;57.698;11.946;2022-12-26T07:36:43;12.80;57.00
13440;DHT22;6792;57.698;11.946;2022-12-26T07:39:13;12.80;57.50
13440;DHT22;6792;57.698;11.946;2022-12-26T07:41:42;12.80;57.50
13440;DHT22;6792;57.698;11.946;2022-12-26T07:44:28;12.80;57.50
13440;DHT22;6792;57.698;11.946;2022-12-26T07:46:57;12.70;57.70
13440;DHT22;6792;57.698;11.946;2022-12-26T07:49:27;12.70;57.60
13440;DHT22;6792;57.698;11.946;2022-12-26T07:51:57;12.70;57.50
13440;DHT22;6792;57.698;11.946;2022-12-26T07:54:26;12.70;57.50
13440;DHT22;6792;57.698;11.946;2022-12-26T07:56:56;12.70;57.60
13440;DHT22;6792;57.698;11.946;2022-12-26T07:59:25;12.80;57.50
13440;DHT22;6792;57.698;11.946;2022-12-26T08:01:55;12.80;57.50
13440;DHT22;6792;57.698;11.946;2022-12-26T08:04:24;12.80;57.50
13440;DHT22;6792;57.698;11.946;2022-12-26T08:06:54;12.80;57.50
13440;DHT22;6792;57.698;11.946;2022-12-26T08:09:23;12.80;57.50
13440;DHT22;6792;57.698;11.946;2022-12-26T08:11:52;12.80;57.50
13440;DHT22;6792;57.698;11.946;2022-12-26T08:14:21;12.80;56.90
13440;DHT22;6792;57.698;11.946;2022-12-26T08:16:50;12.80;57.50
13440;DHT22;6792;57.698;11.946;2022-12-26T08:19:19;12.80;57.50
13440;DHT22;6792;57.698;11.946;2022-12-26T08:21:48;12.80;57.40
13440;DHT22;6792;57.698;11.946;2022-12-26T08:24:17;12.80;58.10
13440;DHT22;6792;57.698;11.946;2022-12-26T08:26:46;12.80;57.50
13440;DHT22;6792;57.698;11.946;2022-12-26T08:29:16;12.80;57.40
13440;DHT22;6792;57.698;11.946;2022-12-26T08:31:45;12.80;57.50
13440;DHT22;6792;57.698;11.946;2022-12-26T08:34:14;12.80;57.50
13440;DHT22;6792;57.698;11.946;2022-12-26T08:36:43;12.80;57.50
13440;DHT22;6792;57.698;11.946;2022-12-26T08:39:12;12.80;57.00
13440;DHT22;6792;57.698;11.946;2022-12-26T08:41:41;12.80;57.50
13440;DHT22;6792;57.698;11.946;2022-12-26T08:44:10;12.80;57.50
13440;DHT22;6792;57.698;11.946;2022-12-26T08:46:41;12.80;57.50
13440;DHT22;6792;57.698;11.946;2022-12-26T08:49:10;12.80;57.50
13440;DHT22;6792;57.698;11.946;2022-12-26T08:51:39;12.80;57.50
13440;DHT22;6792;57.698;11.946;2022-12-26T08:54:08;12.80;57.50
13440;DHT22;6792;57.698;11.946;2022-12-26T08:56:38;12.80;57.40
13440;DHT22;6792;57.698;11.946;2022-12-26T08:59:07;12.80;57.40
13440;DHT22;6792;57.698;11.946;2022-12-26T09:01:36;12.80;57.50
13440;DHT22;6792;57.698;11.946;2022-12-26T09:04:05;12.80;57.50
13440;DHT22;6792;57.698;11.946;2022-12-26T09:06:36;12.80;57.40
13440;DHT22;6792;57.698;11.946;2022-12-26T09:09:07;12.80;57.50
13440;DHT22;6792;57.698;11.946;2022-12-26T09:11:38;12.80;57.50
13440;DHT22;6792;57.698;11.946;2022-12-26T09:14:08;12.80;57.50
13440;DHT22;6792;57.698;11.946;2022-12-26T09:16:41;12.80;57.00
13440;DHT22;6792;57.698;11.946;2022-12-26T09:19:11;12.90;57.50
13440;DHT22;6792;57.698;11.946;2022-12-26T09:21:41;12.80;57.00
13440;DHT22;6792;57.698;11.946;2022-12-26T09:24:13;12.80;57.50
13440;DHT22;6792;57.698;11.946;2022-12-26T09:26:43;12.90;57.50
13440;DHT22;6792;57.698;11.946;2022-12-26T09:29:13;12.90;57.60
13440;DHT22;6792;57.698;11.946;2022-12-26T09:31:42;12.80;57.50
13440;DHT22;6792;57.698;11.946;2022-12-26T09:34:11;12.80;57.50
13440;DHT22;6792;57.698;11.946;2022-12-26T09:36:40;12.90;57.50
13440;DHT22;6792;57.698;11.946;2022-12-26T09:39:11;12.80;57.50
13440;DHT22;6792;57.698;11.946;2022-12-26T09:41:50;12.90;57.00
13440;DHT22;6792;57.698;11.946;2022-12-26T09:44:22;12.80;57.00
13440;DHT22;6792;57.698;11.946;2022-12-26T09:46:57;12.80;57.00
13440;DHT22;6792;57.698;11.946;2022-12-26T09:49:29;12.80;57.10
13440;DHT22;6792;57.698;11.946;2022-12-26T09:52:03;12.80;57.60
13440;DHT22;6792;57.698;11.946;2022-12-26T09:54:34;12.80;57.60
13440;DHT22;6792;57.698;11.946;2022-12-26T09:57:06;12.80;57.60
13440;DHT22;6792;57.698;11.946;2022-12-26T09:59:39;12.80;57.10
13440;DHT22;6792;57.698;11.946;2022-12-26T10:02:13;12.80;57.60
13440;DHT22;6792;57.698;11.946;2022-12-26T10:04:43;12.80;57.70
13440;DHT22;6792;57.698;11.946;2022-12-26T10:07:16;12.90;57.70
13440;DHT22;6792;57.698;11.946;2022-12-26T10:10:06;12.80;57.60
13440;DHT22;6792;57.698;11.946;2022-12-26T10:12:47;12.90;57.60
13440;DHT22;6792;57.698;11.946;2022-12-26T10:15:29;12.90;57.60
13440;DHT22;6792;57.698;11.946;2022-12-26T10:18:05;12.90;57.60
13440;DHT22;6792;57.698;11.946;2022-12-26T10:20:38;12.80;57.60
13440;DHT22;6792;57.698;11.946;2022-12-26T10:23:21;12.80;57.70
13440;DHT22;6792;57.698;11.946;2022-12-26T10:25:52;12.90;57.70
13440;DHT22;6792;57.698;11.946;2022-12-26T10:28:27;12.90;57.20
13440;DHT22;6792;57.698;11.946;2022-12-26T10:30:59;12.90;57.70
13440;DHT22;6792;57.698;11.946;2022-12-26T10:33:34;12.90;57.70
13440;DHT22;6792;57.698;11.946;2022-12-26T10:36:04;12.90;57.10
13440;DHT22;6792;57.698;11.946;2022-12-26T10:38:37;12.90;57.70
13440;DHT22;6792;57.698;11.946;2022-12-26T10:41:12;12.90;57.60
13440;DHT22;6792;57.698;11.946;2022-12-26T10:43:41;12.90;57.70
13440;DHT22;6792;57.698;11.946;2022-12-26T10:46:24;12.90;57.60
13440;DHT22;6792;57.698;11.946;2022-12-26T10:48:53;12.90;57.60
13440;DHT22;6792;57.698;11.946;2022-12-26T10:51:24;12.90;57.60
13440;DHT22;6792;57.698;11.946;2022-12-26T10:53:53;12.90;57.60
13440;DHT22;6792;57.698;11.946;2022-12-26T10:56:26;12.90;57.00
13440;DHT22;6792;57.698;11.946;2022-12-26T10:59:02;12.90;58.10
13440;DHT22;6792;57.698;11.946;2022-12-26T11:01:33;12.90;57.60
13440;DHT22;6792;57.698;11.946;2022-12-26T11:04:04;12.90;57.60
13440;DHT22;6792;57.698;11.946;2022-12-26T11:06:36;12.90;57.60
13440;DHT22;6792;57.698;11.946;2022-12-26T11:09:18;12.90;57.70
13440;DHT22;6792;57.698;11.946;2022-12-26T11:11:41;12.90;57.70
13440;DHT22;6792;57.698;11.946;2022-12-26T11:14:34;12.90;57.70
13440;DHT22;6792;57.698;11.946;2022-12-26T11:17:07;12.90;57.70
13440;DHT22;6792;57.698;11.946;2022-12-26T11:19:39;12.80;57.40
13440;DHT22;6792;57.698;11.946;2022-12-26T11:22:21;12.90;58.00
13440;DHT22;6792;57.698;11.946;2022-12-26T11:28:02;12.80;57.40
13440;DHT22;6792;57.698;11.946;2022-12-26T11:30:36;12.70;58.00
13440;DHT22;6792;57.698;11.946;2022-12-26T11:33:10;12.80;57.90
13440;DHT22;6792;57.698;11.946;2022-12-26T11:35:49;12.80;57.40
13440;DHT22;6792;57.698;11.946;2022-12-26T11:38:20;12.80;57.90
13440;DHT22;6792;57.698;11.946;2022-12-26T11:41:03;12.80;57.30
13440;DHT22;6792;57.698;11.946;2022-12-26T11:43:52;12.80;58.00
13440;DHT22;6792;57.698;11.946;2022-12-26T11:46:30;12.70;58.00
13440;DHT22;6792;57.698;11.946;2022-12-26T11:49:01;12.80;58.00
13440;DHT22;6792;57.698;11.946;2022-12-26T11:51:37;12.70;57.90
13440;DHT22;6792;57.698;11.946;2022-12-26T11:54:22;12.70;57.80
13440;DHT22;6792;57.698;11.946;2022-12-26T11:59:49;12.70;58.00
13440;DHT22;6792;57.698;11.946;2022-12-26T12:02:23;12.70;57.40
13440;DHT22;6792;57.698;11.946;2022-12-26T12:04:57;12.80;58.00
13440;DHT22;6792;57.698;11.946;2022-12-26T12:07:42;12.80;57.90
13440;DHT22;6792;57.698;11.946;2022-12-26T12:13:10;12.80;57.80
13440;DHT22;6792;57.698;11.946;2022-12-26T12:15:43;12.80;58.00
13440;DHT22;6792;57.698;11.946;2022-12-26T12:18:16;12.80;58.00
13440;DHT22;6792;57.698;11.946;2022-12-26T12:20:50;12.80;58.00
13440;DHT22;6792;57.698;11.946;2022-12-26T12:23:27;12.80;57.90
13440;DHT22;6792;57.698;11.946;2022-12-26T12:26:04;12.90;57.90
13440;DHT22;6792;57.698;11.946;2022-12-26T12:28:57;12.90;57.80
13440;DHT22;6792;57.698;11.946;2022-12-26T12:31:28;12.80;57.20
13440;DHT22;6792;57.698;11.946;2022-12-26T12:34:00;12.80;57.20
13440;DHT22;6792;57.698;11.946;2022-12-26T12:36:34;12.90;57.80
13440;DHT22;6792;57.698;11.946;2022-12-26T12:39:11;12.90;57.80
13440;DHT22;6792;57.698;11.946;2022-12-26T12:44:43;12.90;57.30
13440;DHT22;6792;57.698;11.946;2022-12-26T12:47:15;12.90;57.20
13440;DHT22;6792;57.698;11.946;2022-12-26T12:49:51;12.90;57.80
13440;DHT22;6792;57.698;11.946;2022-12-26T12:52:29;12.90;57.80
13440;DHT22;6792;57.698;11.946;2022-12-26T12:55:09;12.90;57.80
13440;DHT22;6792;57.698;11.946;2022-12-26T12:57:44;12.90;57.70
13440;DHT22;6792;57.698;11.946;2022-12-26T13:00:16;12.90;57.20
13440;DHT22;6792;57.698;11.946;2022-12-26T13:02:48;12.90;57.70
13440;DHT22;6792;57.698;11.946;2022-12-26T13:05:24;12.90;57.70
13440;DHT22;6792;57.698;11.946;2022-12-26T13:07:56;12.90;57.60
13440;DHT22;6792;57.698;11.946;2022-12-26T13:10:27;12.90;57.70
13440;DHT22;6792;57.698;11.946;2022-12-26T13:12:57;12.90;57.20
13440;DHT22;6792;57.698;11.946;2022-12-26T13:15:31;12.90;57.20
13440;DHT22;6792;57.698;11.946;2022-12-26T13:18:10;12.90;57.10
13440;DHT22;6792;57.698;11.946;2022-12-26T13:20:42;12.90;57.10
13440;DHT22;6792;57.698;11.946;2022-12-26T13:23:17;12.90;57.70
13440;DHT22;6792;57.698;11.946;2022-12-26T13:26:08;12.90;57.20
13440;DHT22;6792;57.698;11.946;2022-12-26T13:28:51;12.80;57.90
13440;DHT22;6792;57.698;11.946;2022-12-26T13:31:22;12.80;57.90
13440;DHT22;6792;57.698;11.946;2022-12-26T13:33:51;12.80;57.90
13440;DHT22;6792;57.698;11.946;2022-12-26T13:36:41;12.80;57.70
13440;DHT22;6792;57.698;11.946;2022-12-26T13:39:35;12.80;57.70
13440;DHT22;6792;57.698;11.946;2022-12-26T13:42:26;12.80;57.80
13440;DHT22;6792;57.698;11.946;2022-12-26T13:51:58;12.80;57.80
13440;DHT22;6792;57.698;11.946;2022-12-26T13:54:29;12.70;57.20
13440;DHT22;6792;57.698;11.946;2022-12-26T14:00:20;12.70;57.40
13440;DHT22;6792;57.698;11.946;2022-12-26T14:03:06;12.70;57.40
13440;DHT22;6792;57.698;11.946;2022-12-26T14:05:36;12.70;57.40
13440;DHT22;6792;57.698;11.946;2022-12-26T14:08:09;12.70;57.90
13440;DHT22;6792;57.698;11.946;2022-12-26T14:10:44;12.70;57.40
13440;DHT22;6792;57.698;11.946;2022-12-26T14:13:28;12.80;57.40
13440;DHT22;6792;57.698;11.946;2022-12-26T14:15:54;12.70;57.30
13440;DHT22;6792;57.698;11.946;2022-12-26T14:18:33;12.80;57.30
13440;DHT22;6792;57.698;11.946;2022-12-26T14:21:19;12.80;57.40
13440;DHT22;6792;57.698;11.946;2022-12-26T14:23:50;12.80;57.40
13440;DHT22;6792;57.698;11.946;2022-12-26T14:26:27;12.80;57.40
13440;DHT22;6792;57.698;11.946;2022-12-26T14:29:08;12.80;57.90
13440;DHT22;6792;57.698;11.946;2022-12-26T14:31:35;12.80;57.40
13440;DHT22;6792;57.698;11.946;2022-12-26T14:34:14;12.80;57.90
13440;DHT22;6792;57.698;11.946;2022-12-26T14:36:49;12.80;57.30
13440;DHT22;6792;57.698;11.946;2022-12-26T14:39:24;12.80;57.90
13440;DHT22;6792;57.698;11.946;2022-12-26T14:42:18;12.80;57.90
13440;DHT22;6792;57.698;11.946;2022-12-26T14:45:12;12.70;57.30
13440;DHT22;6792;57.698;11.946;2022-12-26T14:47:44;12.60;57.60
13440;DHT22;6792;57.698;11.946;2022-12-26T14:50:39;12.60;57.60
13440;DHT22;6792;57.698;11.946;2022-12-26T14:53:33;12.60;57.50
13440;DHT22;6792;57.698;11.946;2022-12-26T14:56:34;12.60;57.60
13440;DHT22;6792;57.698;11.946;2022-12-26T14:58:41;12.60;57.70
13440;DHT22;6792;57.698;11.946;2022-12-26T15:01:47;12.60;58.20
13440;DHT22;6792;57.698;11.946;2022-12-26T15:04:43;12.60;57.50
13440;DHT22;6792;57.698;11.946;2022-12-26T15:07:47;12.60;58.40
13440;DHT22;6792;57.698;11.946;2022-12-26T15:10:49;12.60;58.40
13440;DHT22;6792;57.698;11.946;2022-12-26T15:16:41;12.60;57.90
13440;DHT22;6792;57.698;11.946;2022-12-26T15:28:34;12.70;58.30
13440;DHT22;6792;57.698;11.946;2022-12-26T15:31:23;12.70;57.60
13440;DHT22;6792;57.698;11.946;2022-12-26T15:33:51;12.70;58.20
13440;DHT22;6792;57.698;11.946;2022-12-26T15:36:24;12.70;57.70
13440;DHT22;6792;57.698;11.946;2022-12-26T15:38:56;12.70;58.30
13440;DHT22;6792;57.698;11.946;2022-12-26T15:41:31;12.80;58.20
13440;DHT22;6792;57.698;11.946;2022-12-26T15:44:10;12.70;58.20
13440;DHT22;6792;57.698;11.946;2022-12-26T15:46:41;12.80;57.70
13440;DHT22;6792;57.698;11.946;2022-12-26T15:49:23;12.80;57.70
13440;DHT22;6792;57.698;11.946;2022-12-26T15:52:12;12.80;58.80
13440;DHT22;6792;57.698;11.946;2022-12-26T15:57:25;12.80;57.70
13440;DHT22;6792;57.698;11.946;2022-12-26T16:00:07;12.70;58.40
13440;DHT22;6792;57.698;11.946;2022-12-26T16:02:42;12.80;57.90
13440;DHT22;6792;57.698;11.946;2022-12-26T16:05:33;12.80;58.40
13440;DHT22;6792;57.698;11.946;2022-12-26T16:08:15;12.80;58.30
13440;DHT22;6792;57.698;11.946;2022-12-26T16:10:45;12.80;58.40
13440;DHT22;6792;57.698;11.946;2022-12-26T16:13:18;12.90;58.50
13440;DHT22;6792;57.698;11.946;2022-12-26T16:15:57;12.90;58.40
13440;DHT22;6792;57.698;11.946;2022-12-26T16:18:25;12.90;58.30
13440;DHT22;6792;57.698;11.946;2022-12-26T16:20:59;12.90;58.30
13440;DHT22;6792;57.698;11.946;2022-12-26T16:23:48;13.00;58.40
13440;DHT22;6792;57.698;11.946;2022-12-26T16:26:20;12.90;58.40
13440;DHT22;6792;57.698;11.946;2022-12-26T16:28:50;12.90;58.40
13440;DHT22;6792;57.698;11.946;2022-12-26T16:31:22;12.90;58.30
13440;DHT22;6792;57.698;11.946;2022-12-26T16:33:57;12.90;58.30
13440;DHT22;6792;57.698;11.946;2022-12-26T16:36:28;12.90;58.40
13440;DHT22;6792;57.698;11.946;2022-12-26T16:38:58;13.00;58.40
13440;DHT22;6792;57.698;11.946;2022-12-26T16:41:30;13.00;58.40
13440;DHT22;6792;57.698;11.946;2022-12-26T16:44:20;13.00;57.90
13440;DHT22;6792;57.698;11.946;2022-12-26T16:46:35;12.90;57.90
13440;DHT22;6792;57.698;11.946;2022-12-26T16:49:05;13.00;58.50
13440;DHT22;6792;57.698;11.946;2022-12-26T16:51:38;12.90;58.40
13440;DHT22;6792;57.698;11.946;2022-12-26T16:54:25;12.90;57.90
13440;DHT22;6792;57.698;11.946;2022-12-26T16:57:01;12.80;58.30
13440;DHT22;6792;57.698;11.946;2022-12-26T16:59:36;12.80;59.00
13440;DHT22;6792;57.698;11.946;2022-12-26T17:02:12;12.70;58.40
13440;DHT22;6792;57.698;11.946;2022-12-26T17:04:48;12.60;57.60
13440;DHT22;6792;57.698;11.946;2022-12-26T17:07:19;12.60;58.10